Terminal Aerodrome Forecast
Issued by NWS

Home | Current Version | Previous Version | Text Only | Print | Product List | Glossary On
Versions: 1 2 3 4 5 6 7 8 9 10 11 12 13 14 15 16 17 18 19 20 21 22 23 24 25 26
000
FTUS43 KSGF 170522
TAFBBG
TAF
KBBG 170522Z 1706/1806 20004KT P6SM -SHRA VCTS SCT005CB BKN035
      TEMPO 1706/1708 3SM -TSRA BKN025CB
     FM170900 21006KT P6SM SCT025 BKN080
     FM171400 27007KT P6SM BKN080
     FM171700 28008KT P6SM SCT090
     FM180100 30004KT P6SM FEW250=

USA.gov is the U.S. government's official web portal to all federal, state and local government web resources and services.